Time;durP1;ratioP1;P1;durP2;ratioP2;P2;SDS_P1;SDS_P2;PMS_P1;PMS_P2;Temp;Humidity;BMP_temperature;BMP_pressure;BME280_temperature;BME280_humidity;BME280_pressure;Samples;Min_cycle;Max_cycle;Signal;HPM_P1;HPM_P2
2022/07/12 00:01:41;;;;;;;28.38;5.47;;;13.50;99.90;;;;;;5031790;28;20053;-45
2022/07/12 00:04:07;;;;;;;4.07;3.60;;;13.40;99.90;;;;;;5035828;28;20081;-44
2022/07/12 00:06:33;;;;;;;5.10;4.60;;;13.40;99.90;;;;;;5042594;28;20080;-46
2022/07/12 00:08:59;;;;;;;5.97;3.83;;;13.50;99.90;;;;;;5037985;28;20049;-44
2022/07/12 00:11:25;;;;;;;4.13;3.72;;;13.50;99.90;;;;;;5015124;28;20471;-44
2022/07/12 00:13:51;;;;;;;3.53;3.22;;;13.50;99.90;;;;;;5032194;28;20085;-45
2022/07/12 00:16:18;;;;;;;5.10;4.65;;;13.50;99.90;;;;;;5035154;28;20072;-45
2022/07/12 00:18:44;;;;;;;5.53;4.60;;;13.50;99.90;;;;;;5033581;28;20104;-46
2022/07/12 00:21:20;;;;;;;5.93;5.07;;;13.50;99.90;;;;;;5042453;28;20064;-45
2022/07/12 00:23:49;;;;;;;6.28;5.65;;;13.60;99.90;;;;;;5048980;28;20048;-44
2022/07/12 00:26:34;;;;;;;7.07;6.20;;;13.70;99.90;;;;;;5027616;28;20065;-45
2022/07/12 00:29:12;;;;;;;10.75;7.25;;;13.70;99.90;;;;;;5034891;28;20041;-46
2022/07/12 00:31:37;;;;;;;14.52;6.55;;;13.70;99.90;;;;;;5017662;28;20804;-43
2022/07/12 00:34:03;;;;;;;22.92;6.30;;;13.70;99.90;;;;;;5030008;28;20053;-44
2022/07/12 00:36:42;;;;;;;20.48;6.07;;;13.70;99.90;;;;;;5009182;28;20045;-45
2022/07/12 00:39:20;;;;;;;28.05;6.85;;;13.70;99.90;;;;;;5039812;28;20064;-45
2022/07/12 00:41:54;;;;;;;24.90;6.60;;;13.70;99.90;;;;;;5015644;28;20044;-44
2022/07/12 00:44:20;;;;;;;6.15;4.93;;;13.70;99.90;;;;;;5026536;28;20053;-44
2022/07/12 00:47:05;;;;;;;15.45;6.68;;;13.70;99.90;;;;;;5027436;28;20495;-46
2022/07/12 00:49:34;;;;;;;6.65;5.55;;;13.70;99.90;;;;;;5029189;28;20038;-44
2022/07/12 00:52:05;;;;;;;5.32;4.82;;;13.70;99.90;;;;;;5010860;28;20049;-49
2022/07/12 00:54:50;;;;;;;9.60;5.18;;;13.60;99.90;;;;;;5038707;28;20045;-44
2022/07/12 00:57:16;;;;;;;4.93;4.53;;;13.60;99.90;;;;;;5024753;28;20054;-44
2022/07/12 00:59:41;;;;;;;5.22;4.72;;;13.50;99.90;;;;;;5043987;28;20080;-45
2022/07/12 01:02:08;;;;;;;5.60;4.75;;;13.50;99.90;;;;;;5043240;28;20575;-44
2022/07/12 01:04:37;;;;;;;5.07;4.57;;;13.50;99.90;;;;;;5041433;28;20056;-45
2022/07/12 01:07:05;;;;;;;6.53;5.57;;;13.40;99.90;;;;;;5009980;28;20498;-45
2022/07/12 01:09:32;;;;;;;4.78;4.10;;;13.40;99.90;;;;;;5034149;28;20138;-44
2022/07/12 01:11:59;;;;;;;5.65;4.30;;;13.40;99.90;;;;;;5007998;28;20080;-44
2022/07/12 01:14:25;;;;;;;5.68;4.28;;;13.40;99.90;;;;;;5030713;28;20080;-45
2022/07/12 01:16:51;;;;;;;4.95;4.00;;;13.30;99.90;;;;;;5001774;28;20152;-45
2022/07/12 01:19:21;;;;;;;3.65;3.35;;;13.20;99.90;;;;;;5030469;28;20088;-44
2022/07/12 01:21:50;;;;;;;4.30;3.42;;;13.20;99.90;;;;;;5028766;28;20077;-47
2022/07/12 01:24:19;;;;;;;5.10;3.10;;;13.20;99.90;;;;;;5008919;28;20467;-45
2022/07/12 01:26:46;;;;;;;3.08;2.65;;;13.20;99.90;;;;;;5032567;28;20744;-44
2022/07/12 01:29:16;;;;;;;4.07;3.55;;;13.10;99.90;;;;;;5041413;28;20126;-45
2022/07/12 01:31:43;;;;;;;12.68;3.92;;;13.10;99.90;;;;;;5038511;28;20132;-44
2022/07/12 01:34:09;;;;;;;11.93;4.43;;;13.10;99.90;;;;;;5036896;28;20132;-45
2022/07/12 01:36:36;;;;;;;9.77;3.97;;;13.00;99.90;;;;;;5037182;28;20072;-44
2022/07/12 01:39:04;;;;;;;3.30;3.00;;;13.00;99.90;;;;;;5034805;28;20060;-45
2022/07/12 01:41:32;;;;;;;3.22;2.92;;;13.00;99.90;;;;;;5028962;28;20049;-44
2022/07/12 01:43:59;;;;;;;2.65;2.45;;;12.90;99.90;;;;;;5037943;28;20049;-44
2022/07/12 01:46:24;;;;;;;2.30;2.00;;;12.90;99.90;;;;;;5033338;28;20452;-46
2022/07/12 01:48:50;;;;;;;2.58;1.70;;;12.90;99.90;;;;;;5028926;28;20128;-44
2022/07/12 01:51:16;;;;;;;2.22;1.83;;;12.80;99.90;;;;;;5035092;28;20095;-45
2022/07/12 01:53:42;;;;;;;3.15;1.60;;;12.80;99.90;;;;;;5038629;28;20072;-45
2022/07/12 01:56:09;;;;;;;5.50;1.98;;;12.80;99.90;;;;;;5030457;28;20428;-45
2022/07/12 01:58:35;;;;;;;9.13;1.88;;;12.80;99.90;;;;;;5033060;28;20057;-46
2022/07/12 02:01:01;;;;;;;2.00;1.70;;;12.80;99.90;;;;;;5039151;28;20049;-45
2022/07/12 02:03:36;;;;;;;2.85;1.90;;;12.80;99.90;;;;;;5029772;28;20059;-46
2022/07/12 02:06:03;;;;;;;3.33;1.95;;;12.80;99.90;;;;;;5042748;28;20797;-55
2022/07/12 02:08:29;;;;;;;7.22;2.33;;;12.80;99.90;;;;;;5043135;28;20492;-45
2022/07/12 02:10:56;;;;;;;6.38;2.00;;;12.70;99.90;;;;;;5035512;28;20498;-45
2022/07/12 02:13:22;;;;;;;6.18;2.30;;;12.80;99.90;;;;;;5040997;28;20050;-45
2022/07/12 02:15:48;;;;;;;11.15;2.72;;;12.80;99.90;;;;;;5039820;28;20500;-46
2022/07/12 02:18:14;;;;;;;23.52;3.03;;;12.80;99.90;;;;;;5041400;28;20056;-44
2022/07/12 02:20:39;;;;;;;38.10;4.60;;;12.80;99.90;;;;;;5033036;28;20061;-44
2022/07/12 02:23:05;;;;;;;52.05;4.72;;;12.80;99.90;;;;;;5031279;28;20041;-44
2022/07/12 02:25:32;;;;;;;49.47;3.83;;;12.80;99.90;;;;;;5033314;28;20076;-44
2022/07/12 02:27:58;;;;;;;42.22;2.80;;;12.80;99.90;;;;;;5044316;28;20138;-45
2022/07/12 02:30:23;;;;;;;48.63;3.15;;;12.80;99.90;;;;;;5036209;28;20042;-45
2022/07/12 02:32:49;;;;;;;6.05;2.40;;;12.80;99.90;;;;;;5044815;28;20056;-43
2022/07/12 02:35:16;;;;;;;9.10;2.40;;;12.80;99.90;;;;;;5036386;28;20133;-44
2022/07/12 02:37:42;;;;;;;3.92;1.90;;;12.80;99.90;;;;;;5031608;28;20052;-44
2022/07/12 02:42:54;;;;;;;2.97;1.70;;;12.80;99.90;;;;;;5030445;28;20049;-45
2022/07/12 02:45:20;;;;;;;3.30;1.80;;;12.80;99.90;;;;;;5027646;28;20049;-45
2022/07/12 02:47:46;;;;;;;5.90;2.20;;;12.80;99.90;;;;;;5034468;28;20044;-46
2022/07/12 02:50:12;;;;;;;7.05;2.20;;;12.80;99.90;;;;;;5032476;28;20060;-45
2022/07/12 02:52:38;;;;;;;7.50;2.17;;;12.80;99.90;;;;;;5037291;28;20504;-44
2022/07/12 02:55:04;;;;;;;9.13;1.90;;;12.70;99.90;;;;;;5035244;28;20045;-44
2022/07/12 02:57:30;;;;;;;12.88;2.58;;;12.70;99.90;;;;;;5041628;28;20053;-47
2022/07/12 02:59:56;;;;;;;7.90;2.28;;;12.70;99.90;;;;;;5030492;28;20060;-44
2022/07/12 03:02:22;;;;;;;33.55;2.95;;;12.60;99.90;;;;;;5028797;28;20061;-46
2022/07/12 03:04:48;;;;;;;18.30;2.60;;;12.60;99.90;;;;;;5037668;28;20563;-45
2022/07/12 03:07:14;;;;;;;19.92;2.42;;;12.60;99.90;;;;;;5034478;28;20400;-44
2022/07/12 03:09:40;;;;;;;48.53;3.47;;;12.60;99.90;;;;;;5039085;28;20131;-45
2022/07/12 03:12:07;;;;;;;42.08;3.30;;;12.60;99.90;;;;;;5028570;28;20685;-45
2022/07/12 03:14:33;;;;;;;67.95;4.75;;;12.50;99.90;;;;;;5027734;28;20044;-45
2022/07/12 03:16:59;;;;;;;85.05;5.15;;;12.50;99.90;;;;;;5033914;28;20049;-49
2022/07/12 03:19:25;;;;;;;52.17;4.10;;;12.50;99.90;;;;;;5034831;28;20057;-48
2022/07/12 03:21:51;;;;;;;23.73;2.90;;;12.60;99.90;;;;;;5027296;28;20067;-47
2022/07/12 03:24:17;;;;;;;6.03;2.40;;;12.50;99.90;;;;;;5038396;28;20045;-44
2022/07/12 03:26:43;;;;;;;3.70;2.45;;;12.40;99.90;;;;;;5015605;28;20048;-44
2022/07/12 03:29:09;;;;;;;4.30;2.30;;;12.50;99.90;;;;;;5039199;28;20041;-46
2022/07/12 03:31:34;;;;;;;8.40;2.65;;;12.50;99.90;;;;;;5017659;28;20053;-44
2022/07/12 03:34:00;;;;;;;5.15;1.80;;;12.50;99.90;;;;;;5020436;28;20055;-44
2022/07/12 03:36:27;;;;;;;4.28;2.35;;;12.50;99.90;;;;;;5016261;28;20084;-46
2022/07/12 03:38:53;;;;;;;3.67;2.17;;;12.50;99.90;;;;;;5030825;28;20044;-45
2022/07/12 03:41:19;;;;;;;4.13;2.05;;;12.50;99.90;;;;;;5032235;28;20045;-44
2022/07/12 03:43:45;;;;;;;2.42;2.22;;;12.50;99.90;;;;;;5012310;28;20087;-44
2022/07/12 03:46:11;;;;;;;2.30;2.10;;;12.60;99.90;;;;;;5009474;28;20184;-45
2022/07/12 03:48:37;;;;;;;2.17;1.98;;;12.60;99.90;;;;;;5029300;28;20048;-45
2022/07/12 03:51:03;;;;;;;5.28;2.28;;;12.60;99.90;;;;;;5034772;28;20048;-45
2022/07/12 03:53:29;;;;;;;3.17;2.20;;;12.60;99.90;;;;;;5030285;28;20073;-46
2022/07/12 03:55:55;;;;;;;7.68;2.92;;;12.70;99.90;;;;;;5017029;28;20054;-44
2022/07/12 03:58:21;;;;;;;12.13;2.83;;;12.70;99.90;;;;;;5011286;28;20053;-45
2022/07/12 04:00:46;;;;;;;7.50;2.40;;;12.80;99.90;;;;;;5024512;28;20099;-45
2022/07/12 04:03:12;;;;;;;5.47;2.60;;;12.90;99.90;;;;;;5029391;28;20103;-47
2022/07/12 04:05:38;;;;;;;29.80;3.22;;;12.90;99.90;;;;;;5034865;28;20044;-44
2022/07/12 04:08:05;;;;;;;7.32;2.80;;;13.00;99.90;;;;;;5018097;28;20092;-46
2022/07/12 04:10:31;;;;;;;7.00;2.47;;;13.10;99.90;;;;;;5026301;28;20064;-44
2022/07/12 04:12:57;;;;;;;8.27;2.88;;;13.10;99.90;;;;;;5014233;28;20103;-44
2022/07/12 04:15:23;;;;;;;4.55;2.45;;;13.30;99.90;;;;;;5010115;28;20053;-44
2022/07/12 04:17:49;;;;;;;2.45;2.22;;;13.50;99.90;;;;;;5010295;28;20053;-46
2022/07/12 04:20:15;;;;;;;2.85;2.05;;;13.60;99.90;;;;;;5034177;28;20050;-46
2022/07/12 04:22:41;;;;;;;2.72;2.30;;;13.70;99.90;;;;;;5034072;28;20098;-45
2022/07/12 04:25:08;;;;;;;2.55;2.17;;;13.80;99.90;;;;;;5037385;28;20049;-45
2022/07/12 04:27:34;;;;;;;5.63;2.60;;;14.00;99.90;;;;;;5037589;28;20064;-45
2022/07/12 04:30:00;;;;;;;6.88;2.35;;;14.20;99.90;;;;;;5034244;28;20491;-48
2022/07/12 04:32:26;;;;;;;6.40;2.80;;;14.50;99.90;;;;;;5011158;28;20049;-48
2022/07/12 04:34:52;;;;;;;16.63;2.75;;;14.80;99.90;;;;;;5032586;28;20137;-45
2022/07/12 04:37:18;;;;;;;3.97;2.20;;;15.10;99.90;;;;;;5041342;28;20041;-45
2022/07/12 04:39:44;;;;;;;4.38;2.10;;;15.60;99.90;;;;;;5033768;28;20045;-45
2022/07/12 04:42:10;;;;;;;5.22;2.20;;;16.10;99.90;;;;;;5035508;28;20051;-45
2022/07/12 04:44:36;;;;;;;4.32;2.10;;;16.70;99.90;;;;;;5043490;28;20049;-45
2022/07/12 04:47:02;;;;;;;2.17;1.98;;;17.30;99.90;;;;;;5038703;28;20065;-44
2022/07/12 04:49:33;;;;;;;2.33;1.70;;;17.80;99.90;;;;;;5034108;28;20095;-45
2022/07/12 04:52:08;;;;;;;3.63;2.20;;;18.40;99.90;;;;;;5011834;28;20060;-46
2022/07/12 04:54:34;;;;;;;2.42;1.98;;;18.90;99.90;;;;;;5018183;28;20487;-44
2022/07/12 04:57:00;;;;;;;2.33;2.13;;;19.50;99.90;;;;;;5010238;28;20500;-44
2022/07/12 04:59:26;;;;;;;2.30;2.10;;;20.10;99.90;;;;;;5032640;28;20053;-44
2022/07/12 05:01:52;;;;;;;2.95;2.30;;;20.60;99.90;;;;;;5039319;28;20053;-44
2022/07/12 05:04:18;;;;;;;2.53;2.03;;;21.20;99.90;;;;;;5035286;28;20427;-46
2022/07/12 05:06:44;;;;;;;2.75;2.55;;;22.00;99.90;;;;;;5035823;28;20084;-44
2022/07/12 05:09:10;;;;;;;4.85;2.40;;;22.80;99.90;;;;;;5046643;28;20052;-45
2022/07/12 05:11:36;;;;;;;3.60;2.80;;;22.40;99.90;;;;;;5036652;28;20057;-45
2022/07/12 05:14:02;;;;;;;3.60;2.70;;;21.60;99.90;;;;;;5037019;28;20057;-45
2022/07/12 05:16:29;;;;;;;3.30;2.95;;;20.80;99.90;;;;;;5039764;28;20099;-44
2022/07/12 05:18:55;;;;;;;2.75;2.55;;;20.10;99.90;;;;;;5033268;28;20056;-44
2022/07/12 05:21:20;;;;;;;3.83;3.10;;;19.50;99.90;;;;;;5043968;28;20049;-45
2022/07/12 05:23:46;;;;;;;3.15;2.85;;;19.20;99.90;;;;;;5044509;28;20049;-45
2022/07/12 05:26:15;;;;;;;3.88;3.00;;;18.90;99.90;;;;;;5042632;28;20095;-44
2022/07/12 05:28:41;;;;;;;3.20;2.90;;;18.70;99.90;;;;;;5026202;28;20495;-44
2022/07/12 05:31:09;;;;;;;3.58;3.28;;;18.80;99.90;;;;;;5026038;28;20053;-45
2022/07/12 05:33:35;;;;;;;3.45;3.15;;;19.10;99.90;;;;;;5036730;28;20057;-45
2022/07/12 05:36:01;;;;;;;3.67;3.38;;;19.30;99.90;;;;;;5032070;28;20070;-45
2022/07/12 05:38:27;;;;;;;4.20;3.80;;;19.40;99.90;;;;;;5045835;28;20056;-45
2022/07/12 05:40:56;;;;;;;4.15;3.42;;;19.30;99.90;;;;;;5040080;28;20049;-45
2022/07/12 05:43:22;;;;;;;3.85;3.55;;;19.20;99.90;;;;;;5010045;28;20152;-45
2022/07/12 05:45:49;;;;;;;3.97;3.67;;;19.20;99.90;;;;;;5010170;28;20152;-46
2022/07/12 05:48:15;;;;;;;3.95;3.65;;;19.10;99.90;;;;;;5039478;28;20049;-46
2022/07/12 05:50:41;;;;;;;4.40;4.00;;;19.00;99.90;;;;;;5029704;28;20120;-46
2022/07/12 05:53:22;;;;;;;4.10;3.65;;;18.90;99.90;;;;;;5028824;28;20088;-47
2022/07/12 05:55:53;;;;;;;4.85;4.35;;;19.00;99.90;;;;;;5033097;28;20198;-46
2022/07/12 05:58:20;;;;;;;4.18;3.78;;;19.10;99.90;;;;;;5032029;28;20116;-44
2022/07/12 06:00:47;;;;;;;4.40;4.00;;;19.40;99.90;;;;;;5025084;28;20065;-45
2022/07/12 06:03:16;;;;;;;4.22;3.83;;;19.70;99.90;;;;;;5036985;28;20049;-45
2022/07/12 06:05:42;;;;;;;4.35;3.95;;;20.10;99.90;;;;;;5025744;28;20056;-45
2022/07/12 06:08:08;;;;;;;4.60;4.20;;;20.80;99.90;;;;;;5038399;28;20496;-46
2022/07/12 06:10:40;;;;;;;4.63;4.22;;;21.40;99.90;;;;;;5035139;28;20436;-44
2022/07/12 06:13:11;;;;;;;4.75;4.30;;;22.40;99.90;;;;;;5015680;28;20080;-45
2022/07/12 06:15:37;;;;;;;4.15;3.85;;;24.10;99.90;;;;;;5037386;28;20049;-46
2022/07/12 06:18:03;;;;;;;4.40;3.95;;;25.90;99.90;;;;;;5014231;28;20060;-45
2022/07/12 06:20:30;;;;;;;5.45;4.35;;;27.40;99.90;;;;;;5012443;28;20424;-45
2022/07/12 06:22:56;;;;;;;6.55;4.32;;;28.30;99.90;;;;;;5042607;28;20056;-46
2022/07/12 06:25:23;;;;;;;5.03;4.53;;;28.80;99.90;;;;;;5044583;28;20183;-46
2022/07/12 06:27:49;;;;;;;4.57;4.18;;;29.10;99.90;;;;;;5031035;28;20503;-45
2022/07/12 06:30:17;;;;;;;4.70;4.40;;;29.70;99.60;;;;;;5033504;28;20046;-48
2022/07/12 06:32:45;;;;;;;6.55;4.40;;;30.40;98.20;;;;;;5038938;28;20061;-46
2022/07/12 06:35:11;;;;;;;4.68;4.28;;;30.80;97.50;;;;;;5033736;28;20061;-46
2022/07/12 06:37:37;;;;;;;4.38;3.97;;;31.40;96.70;;;;;;5035828;28;20060;-46
2022/07/12 06:40:03;;;;;;;4.65;4.25;;;31.30;95.90;;;;;;5028486;28;20050;-47
2022/07/12 06:42:29;;;;;;;4.80;4.28;;;31.00;95.90;;;;;;5035905;28;20444;-46
2022/07/12 06:44:55;;;;;;;5.05;4.50;;;31.00;96.30;;;;;;5039801;28;20147;-49
2022/07/12 06:47:21;;;;;;;4.60;4.20;;;30.70;96.30;;;;;;5027455;28;20045;-49
2022/07/12 06:49:47;;;;;;;4.60;4.18;;;30.50;96.30;;;;;;5029615;28;20785;-47
2022/07/12 06:52:13;;;;;;;4.70;4.30;;;30.10;96.40;;;;;;5029819;28;20052;-47
2022/07/12 06:54:40;;;;;;;4.78;4.28;;;29.40;96.60;;;;;;5040168;28;20826;-47
2022/07/12 06:57:06;;;;;;;5.28;4.88;;;28.50;97.30;;;;;;5030543;28;20053;-50
2022/07/12 06:59:32;;;;;;;4.95;4.55;;;27.70;98.00;;;;;;5036904;28;20466;-46
2022/07/12 07:01:58;;;;;;;5.22;4.82;;;26.90;99.20;;;;;;5032253;28;20161;-49
2022/07/12 07:04:25;;;;;;;5.10;4.70;;;26.60;99.90;;;;;;5032306;28;20396;-46
2022/07/12 07:06:52;;;;;;;6.20;4.97;;;26.40;99.90;;;;;;5026417;28;20056;-48
2022/07/12 07:09:18;;;;;;;5.40;4.90;;;26.30;99.90;;;;;;5034377;28;20122;-45
2022/07/12 07:11:44;;;;;;;4.85;4.45;;;26.20;99.90;;;;;;5033359;28;20054;-45
2022/07/12 07:14:11;;;;;;;5.30;4.55;;;26.50;99.90;;;;;;5034142;28;20068;-47
2022/07/12 07:16:36;;;;;;;5.07;4.68;;;27.00;99.90;;;;;;5026874;28;20049;-46
2022/07/12 07:19:03;;;;;;;5.55;4.50;;;27.80;99.90;;;;;;5033222;28;20068;-47
2022/07/12 07:21:29;;;;;;;5.57;4.75;;;28.30;99.90;;;;;;5027032;28;20573;-46
2022/07/12 07:23:55;;;;;;;4.85;4.32;;;28.90;99.00;;;;;;5031662;28;20432;-47
2022/07/12 07:26:22;;;;;;;4.35;4.05;;;29.10;98.90;;;;;;5031062;28;20506;-48
2022/07/12 07:31:36;;;;;;;4.50;4.10;;;28.10;99.30;;;;;;5027513;28;20080;-47
2022/07/12 07:34:03;;;;;;;4.43;4.05;;;27.20;99.30;;;;;;5010786;28;20053;-45
2022/07/12 07:36:30;;;;;;;4.90;4.50;;;26.80;99.90;;;;;;5030323;28;20068;-46
2022/07/12 07:38:57;;;;;;;4.53;4.20;;;26.40;99.90;;;;;;5038126;28;20048;-46
2022/07/12 07:41:24;;;;;;;4.82;4.32;;;26.00;99.90;;;;;;5034543;28;20056;-45
2022/07/12 07:43:50;;;;;;;4.53;4.13;;;25.80;99.90;;;;;;5034718;28;20054;-45
2022/07/12 07:46:15;;;;;;;4.30;3.90;;;25.50;99.90;;;;;;5010199;28;20048;-48
2022/07/12 07:48:41;;;;;;;4.65;4.25;;;25.40;99.90;;;;;;5029335;28;20400;-46
2022/07/12 07:51:07;;;;;;;4.50;4.10;;;25.30;99.90;;;;;;5032609;28;20083;-48
2022/07/12 07:53:36;;;;;;;4.72;4.20;;;25.10;99.90;;;;;;5010161;28;20463;-45
2022/07/12 07:56:02;;;;;;;4.55;3.85;;;25.00;99.90;;;;;;5009446;28;20400;-45
2022/07/12 07:58:28;;;;;;;5.95;4.10;;;24.70;99.90;;;;;;5029700;28;20055;-48
2022/07/12 08:00:54;;;;;;;4.43;3.80;;;24.60;99.90;;;;;;5026579;28;20089;-47
2022/07/12 08:03:20;;;;;;;5.70;4.22;;;24.50;99.90;;;;;;5009673;28;20132;-47
2022/07/12 08:05:46;;;;;;;8.18;4.45;;;24.40;99.90;;;;;;5028488;28;20146;-46
2022/07/12 08:08:13;;;;;;;4.95;4.50;;;24.40;99.90;;;;;;5036200;28;20049;-46
2022/07/12 08:10:38;;;;;;;4.28;3.88;;;24.30;99.90;;;;;;5010197;28;20045;-45
2022/07/12 08:13:04;;;;;;;6.28;4.30;;;24.30;99.90;;;;;;5025655;28;20045;-46
2022/07/12 08:15:32;;;;;;;5.28;4.63;;;24.10;99.90;;;;;;5015069;28;20499;-46
2022/07/12 08:17:58;;;;;;;4.95;4.50;;;24.00;99.90;;;;;;5007828;28;20065;-47
2022/07/12 08:20:24;;;;;;;5.07;4.57;;;23.80;99.90;;;;;;5031123;28;20959;-46
2022/07/12 08:22:51;;;;;;;5.55;4.72;;;23.90;99.90;;;;;;5042003;28;20139;-46
2022/07/12 08:25:17;;;;;;;5.32;4.82;;;23.90;99.90;;;;;;5010560;28;20458;-46
2022/07/12 08:27:43;;;;;;;5.40;4.97;;;24.00;99.90;;;;;;5034129;28;20088;-48
2022/07/12 08:30:10;;;;;;;6.72;4.40;;;24.20;99.90;;;;;;5034465;28;20049;-48
2022/07/12 08:32:37;;;;;;;5.50;4.80;;;24.40;99.90;;;;;;5028714;28;20156;-47
2022/07/12 08:35:04;;;;;;;5.45;4.95;;;24.60;99.90;;;;;;5028276;28;20084;-48
2022/07/12 08:37:30;;;;;;;5.47;4.63;;;24.90;99.90;;;;;;5008524;28;20057;-46
2022/07/12 08:39:55;;;;;;;4.93;4.60;;;25.20;99.90;;;;;;5008402;28;20057;-45
2022/07/12 08:42:22;;;;;;;5.57;5.15;;;25.40;99.90;;;;;;5009449;28;20057;-46
2022/07/12 08:44:55;;;;;;;5.40;4.90;;;25.60;99.90;;;;;;5005953;28;20626;-45
2022/07/12 08:47:21;;;;;;;4.72;4.32;;;25.60;99.90;;;;;;5025226;28;20672;-45
2022/07/12 08:50:10;;;;;;;6.55;4.50;;;25.50;99.90;;;;;;5026615;28;20124;-47
2022/07/12 08:52:40;;;;;;;5.38;4.93;;;25.60;99.90;;;;;;5013972;28;20057;-45
2022/07/12 08:55:29;;;;;;;6.65;4.95;;;25.70;99.90;;;;;;5037324;28;20080;-47
2022/07/12 08:57:58;;;;;;;5.68;5.18;;;25.80;99.90;;;;;;5031430;28;20143;-46
2022/07/12 09:00:26;;;;;;;5.90;5.32;;;26.00;99.90;;;;;;5025844;28;20045;-46
2022/07/12 09:03:06;;;;;;;6.00;5.18;;;26.00;99.90;;;;;;5009003;28;20087;-47
2022/07/12 09:05:34;;;;;;;7.47;5.25;;;26.00;99.90;;;;;;5034028;28;20049;-46
2022/07/12 09:08:08;;;;;;;5.30;4.90;;;26.00;99.90;;;;;;5029761;28;20045;-45
2022/07/12 09:10:52;;;;;;;6.07;5.57;;;26.30;99.90;;;;;;5022404;28;20041;-46
2022/07/12 09:13:18;;;;;;;5.75;5.18;;;26.50;99.90;;;;;;5023396;28;20064;-49
2022/07/12 09:15:47;;;;;;;6.05;5.55;;;26.60;99.90;;;;;;5036193;28;20049;-46
2022/07/12 09:18:15;;;;;;;6.00;5.40;;;26.70;99.90;;;;;;5007796;28;20049;-46
2022/07/12 09:20:45;;;;;;;8.85;5.97;;;26.70;99.90;;;;;;5027135;28;20143;-47
2022/07/12 09:23:12;;;;;;;6.05;5.55;;;26.80;99.90;;;;;;5031287;28;20091;-47
2022/07/12 09:25:43;;;;;;;6.38;5.78;;;27.00;99.90;;;;;;5041610;28;20061;-48
2022/07/12 09:28:09;;;;;;;6.53;5.50;;;27.00;99.90;;;;;;5018727;28;20114;-46
2022/07/12 09:30:39;;;;;;;6.80;6.30;;;27.00;99.90;;;;;;5022096;28;20038;-46
2022/07/12 09:36:06;;;;;;;8.05;6.10;;;26.90;99.90;;;;;;5021990;28;20054;-48
2022/07/12 09:38:35;;;;;;;6.50;5.82;;;27.10;99.90;;;;;;5012559;28;20176;-48
2022/07/12 09:41:01;;;;;;;7.10;6.22;;;27.10;99.90;;;;;;5022756;28;20057;-47
2022/07/12 09:43:29;;;;;;;4.97;4.57;;;27.10;99.90;;;;;;5042796;28;20049;-50
2022/07/12 09:45:55;;;;;;;6.03;5.43;;;27.20;99.90;;;;;;5018304;28;20049;-47
2022/07/12 09:48:22;;;;;;;6.70;6.07;;;27.20;99.90;;;;;;4989981;28;20053;-50
2022/07/12 09:50:50;;;;;;;7.80;5.90;;;27.20;99.90;;;;;;5012052;28;20071;-46
2022/07/12 09:53:37;;;;;;;7.38;6.70;;;27.30;99.90;;;;;;5043723;28;20048;-52
2022/07/12 09:56:09;;;;;;;7.78;7.13;;;27.30;99.90;;;;;;5034517;28;20072;-46
2022/07/12 09:59:07;;;;;;;7.25;6.13;;;27.40;99.90;;;;;;5024955;28;20075;-46
2022/07/12 10:01:35;;;;;;;7.03;6.45;;;27.50;99.90;;;;;;4938257;29;20067;-47
2022/07/12 10:04:02;;;;;;;7.65;6.95;;;27.60;99.90;;;;;;4942346;29;20546;-48
2022/07/12 10:06:29;;;;;;;7.28;6.68;;;27.70;99.90;;;;;;4916386;29;20143;-48
2022/07/12 10:08:56;;;;;;;6.32;5.82;;;27.50;99.90;;;;;;4944172;29;20051;-46
2022/07/12 10:11:24;;;;;;;6.70;6.10;;;27.50;99.90;;;;;;4943951;29;20055;-48
2022/07/12 10:13:54;;;;;;;6.70;6.05;;;27.60;99.90;;;;;;4926532;29;20047;-49
2022/07/12 10:16:27;;;;;;;6.18;5.65;;;27.80;99.90;;;;;;4938609;29;20151;-50
2022/07/12 10:19:27;;;;;;;5.47;4.97;;;28.00;99.90;;;;;;4933370;29;20071;-49
2022/07/12 10:21:55;;;;;;;6.28;5.68;;;27.90;99.90;;;;;;4945265;28;20078;-47
2022/07/12 10:24:31;;;;;;;6.22;4.85;;;27.70;99.90;;;;;;4944861;28;20090;-48
2022/07/12 10:27:18;;;;;;;5.85;5.32;;;27.80;99.90;;;;;;4963197;28;20140;-47
2022/07/12 10:30:14;;;;;;;5.95;5.38;;;27.80;99.90;;;;;;4945832;28;20057;-49
2022/07/12 10:32:42;;;;;;;5.65;5.10;;;27.80;99.90;;;;;;4960924;28;20059;-46
2022/07/12 10:35:13;;;;;;;8.93;5.32;;;27.90;99.90;;;;;;4950492;28;20468;-46
2022/07/12 10:37:39;;;;;;;9.45;5.85;;;28.00;99.90;;;;;;4986444;28;20177;-46
2022/07/12 10:40:19;;;;;;;5.97;5.47;;;28.00;99.90;;;;;;5034115;28;20844;-46
2022/07/12 10:43:00;;;;;;;5.15;4.65;;;28.00;99.90;;;;;;5029500;28;20048;-49
2022/07/12 10:45:30;;;;;;;5.30;4.78;;;28.00;99.90;;;;;;5030742;28;20289;-47
2022/07/12 10:48:02;;;;;;;5.97;5.47;;;27.90;99.90;;;;;;5041146;28;20741;-47
2022/07/12 10:50:48;;;;;;;6.82;5.32;;;27.80;99.90;;;;;;5041524;28;20132;-48
2022/07/12 10:53:26;;;;;;;5.97;5.38;;;27.40;99.90;;;;;;5024102;28;20053;-50
2022/07/12 10:56:14;;;;;;;4.97;4.57;;;27.10;99.90;;;;;;5037826;28;20221;-47
2022/07/12 10:58:46;;;;;;;4.72;4.32;;;27.00;99.90;;;;;;5035874;28;20080;-46
2022/07/12 11:01:15;;;;;;;5.20;4.70;;;27.10;99.90;;;;;;5032723;28;20095;-47
2022/07/12 11:03:49;;;;;;;3.88;3.53;;;27.20;99.90;;;;;;5029381;28;20056;-46
2022/07/12 11:06:21;;;;;;;5.38;4.30;;;27.30;99.90;;;;;;5034850;28;20507;-45
2022/07/12 11:09:01;;;;;;;5.50;4.07;;;27.30;99.90;;;;;;5026617;28;20053;-48
2022/07/12 11:11:34;;;;;;;4.82;3.90;;;27.40;99.90;;;;;;5026455;28;20053;-48
2022/07/12 11:14:02;;;;;;;4.13;3.78;;;27.50;99.90;;;;;;5025206;28;20053;-50
2022/07/12 11:16:29;;;;;;;3.83;3.53;;;27.70;99.90;;;;;;5025355;28;20041;-49
2022/07/12 11:18:55;;;;;;;3.95;2.92;;;27.90;99.90;;;;;;5024812;28;20059;-47
2022/07/12 11:21:23;;;;;;;4.07;3.67;;;28.00;99.90;;;;;;5036498;28;20188;-48
2022/07/12 11:23:50;;;;;;;5.47;3.35;;;28.10;99.90;;;;;;5034634;28;20060;-47
2022/07/12 11:26:17;;;;;;;6.18;4.40;;;28.30;99.90;;;;;;5030231;28;20114;-48
2022/07/12 11:28:45;;;;;;;4.88;3.67;;;28.40;99.90;;;;;;5016813;28;20068;-50
2022/07/12 11:31:17;;;;;;;4.30;3.65;;;28.50;99.90;;;;;;5036112;28;20053;-46
2022/07/12 11:33:48;;;;;;;3.50;3.20;;;28.40;99.40;;;;;;5034546;28;20057;-47
2022/07/12 11:36:15;;;;;;;3.70;3.40;;;28.20;99.70;;;;;;5023265;28;20236;-46
2022/07/12 11:38:46;;;;;;;5.05;3.70;;;28.10;99.80;;;;;;5041491;28;20082;-48
2022/07/12 11:41:14;;;;;;;3.78;3.38;;;28.20;99.90;;;;;;5005756;28;20519;-46
2022/07/12 11:43:40;;;;;;;4.15;3.80;;;28.30;99.90;;;;;;5022766;28;20398;-46
2022/07/12 11:46:08;;;;;;;3.90;3.10;;;28.30;99.90;;;;;;5023023;28;20049;-48
2022/07/12 11:48:41;;;;;;;3.35;3.05;;;28.40;99.90;;;;;;5096156;23;20085;-52
2022/07/12 11:51:09;;;;;;;3.50;3.20;;;28.50;99.40;;;;;;5020138;28;20061;-52
2022/07/12 11:53:36;;;;;;;3.33;2.80;;;28.50;99.40;;;;;;5003218;28;20052;-51
2022/07/12 11:56:04;;;;;;;4.70;2.88;;;28.50;99.30;;;;;;4987913;28;20566;-51
2022/07/12 11:58:32;;;;;;;2.65;2.40;;;28.50;99.40;;;;;;5021545;28;20439;-49
2022/07/12 12:00:58;;;;;;;5.13;3.22;;;28.80;99.10;;;;;;5022291;28;20106;-52
2022/07/12 12:03:24;;;;;;;6.50;2.00;;;28.80;98.80;;;;;;5021991;28;20076;-51
2022/07/12 12:05:53;;;;;;;4.68;2.13;;;28.80;98.60;;;;;;5021421;28;20045;-52
2022/07/12 12:08:18;;;;;;;3.25;2.28;;;28.80;98.00;;;;;;5020930;28;20475;-52
2022/07/12 12:10:57;;;;;;;3.30;2.63;;;28.80;98.20;;;;;;5020762;28;20049;-54
2022/07/12 12:13:25;;;;;;;7.40;3.90;;;28.90;98.90;;;;;;5000373;28;20100;-51
2022/07/12 12:15:59;;;;;;;3.92;3.33;;;28.60;97.90;;;;;;4984460;28;20384;-49
2022/07/12 12:18:28;;;;;;;2.50;2.00;;;28.60;98.00;;;;;;4992528;28;20112;-50
2022/07/12 12:20:59;;;;;;;2.20;2.00;;;28.60;99.30;;;;;;5004696;28;20042;-50
2022/07/12 12:23:25;;;;;;;3.00;2.30;;;28.70;98.80;;;;;;5010541;28;20120;-52
2022/07/12 12:25:50;;;;;;;4.95;2.53;;;28.80;97.70;;;;;;5013490;28;20053;-51
2022/07/12 12:28:16;;;;;;;4.50;3.40;;;28.80;98.40;;;;;;5003077;28;20052;-52
2022/07/12 12:30:53;;;;;;;3.88;3.30;;;28.80;98.70;;;;;;5014954;28;20475;-51
2022/07/12 12:33:38;;;;;;;3.75;3.45;;;28.70;99.20;;;;;;5019113;28;20054;-50
2022/07/12 12:36:24;;;;;;;7.95;3.75;;;28.60;99.00;;;;;;5019478;28;20473;-50
2022/07/12 12:39:00;;;;;;;5.88;3.90;;;28.50;99.00;;;;;;5016321;28;20076;-52
2022/07/12 12:41:28;;;;;;;5.78;3.55;;;28.30;99.90;;;;;;5010424;28;20053;-54
2022/07/12 12:44:04;;;;;;;4.70;4.30;;;28.30;99.90;;;;;;4996825;28;20068;-49
2022/07/12 12:49:50;;;;;;;6.70;3.58;;;28.10;99.90;;;;;;5008645;28;20111;-52
2022/07/12 12:52:17;;;;;;;3.33;3.03;;;28.10;99.90;;;;;;5021081;28;20054;-52
2022/07/12 12:57:18;;;;;;;2.92;2.08;;;28.10;99.70;;;;;;4888934;22;20115;-52
2022/07/12 12:59:44;;;;;;;2.58;1.63;;;28.10;98.90;;;;;;5031485;28;20052;-50
2022/07/12 13:02:12;;;;;;;2.10;1.20;;;28.20;98.00;;;;;;5019343;28;20053;-53
2022/07/12 13:04:38;;;;;;;1.90;1.08;;;28.20;96.10;;;;;;5017001;28;20521;-53
2022/07/12 13:07:08;;;;;;;4.07;1.20;;;28.20;96.10;;;;;;5038648;28;20045;-51